sensor_id;sensor_type;location;lat;lon;timestamp;P1;durP1;ratioP1;P2;durP2;ratioP2
38465;SDS011;24244;51.950;5.902;2022-09-24T00:01:07;22.33;;;15.93;;
38465;SDS011;24244;51.950;5.902;2022-09-24T00:03:33;22.23;;;15.75;;
38465;SDS011;24244;51.950;5.902;2022-09-24T00:06:00;21.63;;;15.43;;
38465;SDS011;24244;51.950;5.902;2022-09-24T00:08:26;21.90;;;15.23;;
38465;SDS011;24244;51.950;5.902;2022-09-24T00:10:51;23.75;;;15.85;;
38465;SDS011;24244;51.950;5.902;2022-09-24T00:13:17;24.10;;;16.27;;
38465;SDS011;24244;51.950;5.902;2022-09-24T00:15:43;23.55;;;16.38;;
38465;SDS011;24244;51.950;5.902;2022-09-24T00:18:13;22.92;;;16.00;;
38465;SDS011;24244;51.950;5.902;2022-09-24T00:20:40;23.05;;;16.38;;
38465;SDS011;24244;51.950;5.902;2022-09-24T00:23:06;24.70;;;16.70;;
38465;SDS011;24244;51.950;5.902;2022-09-24T00:25:33;22.88;;;15.40;;
38465;SDS011;24244;51.950;5.902;2022-09-24T00:28:23;20.85;;;14.93;;
38465;SDS011;24244;51.950;5.902;2022-09-24T00:30:48;24.17;;;15.88;;
38465;SDS011;24244;51.950;5.902;2022-09-24T00:33:17;21.67;;;15.10;;
38465;SDS011;24244;51.950;5.902;2022-09-24T00:35:43;21.75;;;15.60;;
38465;SDS011;24244;51.950;5.902;2022-09-24T00:38:09;24.00;;;16.17;;
38465;SDS011;24244;51.950;5.902;2022-09-24T00:40:35;23.73;;;16.65;;
38465;SDS011;24244;51.950;5.902;2022-09-24T00:45:43;20.88;;;13.85;;
38465;SDS011;24244;51.950;5.902;2022-09-24T00:48:09;23.73;;;15.57;;
38465;SDS011;24244;51.950;5.902;2022-09-24T00:50:36;22.48;;;15.00;;
38465;SDS011;24244;51.950;5.902;2022-09-24T00:53:02;23.83;;;15.52;;
38465;SDS011;24244;51.950;5.902;2022-09-24T00:55:32;24.70;;;16.45;;
38465;SDS011;24244;51.950;5.902;2022-09-24T00:58:00;23.02;;;16.15;;
38465;SDS011;24244;51.950;5.902;2022-09-24T01:00:30;23.75;;;16.27;;
38465;SDS011;24244;51.950;5.902;2022-09-24T01:02:57;25.80;;;16.65;;
38465;SDS011;24244;51.950;5.902;2022-09-24T01:05:26;25.08;;;17.00;;
38465;SDS011;24244;51.950;5.902;2022-09-24T01:07:53;25.20;;;17.08;;
38465;SDS011;24244;51.950;5.902;2022-09-24T01:10:19;27.33;;;17.52;;
38465;SDS011;24244;51.950;5.902;2022-09-24T01:13:15;25.55;;;17.60;;
38465;SDS011;24244;51.950;5.902;2022-09-24T01:15:54;24.33;;;17.55;;
38465;SDS011;24244;51.950;5.902;2022-09-24T01:18:29;25.25;;;17.52;;
38465;SDS011;24244;51.950;5.902;2022-09-24T01:21:07;26.98;;;17.63;;
38465;SDS011;24244;51.950;5.902;2022-09-24T01:23:53;27.70;;;18.73;;
38465;SDS011;24244;51.950;5.902;2022-09-24T01:26:32;24.90;;;17.38;;
38465;SDS011;24244;51.950;5.902;2022-09-24T01:31:56;25.58;;;17.20;;
38465;SDS011;24244;51.950;5.902;2022-09-24T01:34:31;27.23;;;18.83;;
38465;SDS011;24244;51.950;5.902;2022-09-24T01:37:02;27.95;;;19.30;;
38465;SDS011;24244;51.950;5.902;2022-09-24T01:39:28;24.83;;;18.10;;
38465;SDS011;24244;51.950;5.902;2022-09-24T01:41:57;28.23;;;19.33;;
38465;SDS011;24244;51.950;5.902;2022-09-24T01:44:23;29.83;;;18.98;;
38465;SDS011;24244;51.950;5.902;2022-09-24T01:46:51;27.92;;;18.98;;
38465;SDS011;24244;51.950;5.902;2022-09-24T01:49:18;26.95;;;18.98;;
38465;SDS011;24244;51.950;5.902;2022-09-24T01:51:44;30.00;;;20.85;;
38465;SDS011;24244;51.950;5.902;2022-09-24T01:54:15;28.98;;;19.52;;
38465;SDS011;24244;51.950;5.902;2022-09-24T01:56:44;27.13;;;19.08;;
38465;SDS011;24244;51.950;5.902;2022-09-24T01:59:17;30.13;;;19.52;;
38465;SDS011;24244;51.950;5.902;2022-09-24T02:01:47;28.55;;;19.70;;
38465;SDS011;24244;51.950;5.902;2022-09-24T02:04:20;27.73;;;18.35;;
38465;SDS011;24244;51.950;5.902;2022-09-24T02:06:50;27.38;;;18.70;;
38465;SDS011;24244;51.950;5.902;2022-09-24T02:09:30;25.70;;;17.40;;
38465;SDS011;24244;51.950;5.902;2022-09-24T02:11:57;27.88;;;18.35;;
38465;SDS011;24244;51.950;5.902;2022-09-24T02:14:26;24.70;;;16.85;;
38465;SDS011;24244;51.950;5.902;2022-09-24T02:16:57;24.85;;;16.67;;
38465;SDS011;24244;51.950;5.902;2022-09-24T02:19:26;26.17;;;17.80;;
38465;SDS011;24244;51.950;5.902;2022-09-24T02:21:55;25.45;;;17.40;;
38465;SDS011;24244;51.950;5.902;2022-09-24T02:24:23;25.42;;;17.67;;
38465;SDS011;24244;51.950;5.902;2022-09-24T02:26:56;23.70;;;16.50;;
38465;SDS011;24244;51.950;5.902;2022-09-24T02:29:21;23.92;;;16.60;;
38465;SDS011;24244;51.950;5.902;2022-09-24T02:31:47;23.70;;;16.65;;
38465;SDS011;24244;51.950;5.902;2022-09-24T02:34:19;23.85;;;16.05;;
38465;SDS011;24244;51.950;5.902;2022-09-24T02:36:50;24.20;;;16.65;;
38465;SDS011;24244;51.950;5.902;2022-09-24T02:39:18;23.85;;;16.83;;
38465;SDS011;24244;51.950;5.902;2022-09-24T02:41:44;23.30;;;16.25;;
38465;SDS011;24244;51.950;5.902;2022-09-24T02:44:11;23.45;;;15.95;;
38465;SDS011;24244;51.950;5.902;2022-09-24T02:46:38;20.80;;;14.35;;
38465;SDS011;24244;51.950;5.902;2022-09-24T02:49:06;21.27;;;14.30;;
38465;SDS011;24244;51.950;5.902;2022-09-24T02:51:33;22.52;;;15.35;;
38465;SDS011;24244;51.950;5.902;2022-09-24T02:53:58;22.23;;;14.90;;
38465;SDS011;24244;51.950;5.902;2022-09-24T02:56:25;22.23;;;14.40;;
38465;SDS011;24244;51.950;5.902;2022-09-24T02:58:50;20.83;;;13.82;;
38465;SDS011;24244;51.950;5.902;2022-09-24T03:01:17;20.70;;;14.50;;
38465;SDS011;24244;51.950;5.902;2022-09-24T03:03:43;19.67;;;13.30;;
38465;SDS011;24244;51.950;5.902;2022-09-24T03:06:09;20.63;;;13.98;;
38465;SDS011;24244;51.950;5.902;2022-09-24T03:08:39;19.05;;;12.90;;
38465;SDS011;24244;51.950;5.902;2022-09-24T03:11:05;21.53;;;13.63;;
38465;SDS011;24244;51.950;5.902;2022-09-24T03:13:30;19.40;;;12.93;;
38465;SDS011;24244;51.950;5.902;2022-09-24T03:15:56;18.58;;;12.23;;
38465;SDS011;24244;51.950;5.902;2022-09-24T03:18:21;19.25;;;12.82;;
38465;SDS011;24244;51.950;5.902;2022-09-24T03:20:53;18.33;;;12.10;;
38465;SDS011;24244;51.950;5.902;2022-09-24T03:23:19;18.90;;;12.57;;
38465;SDS011;24244;51.950;5.902;2022-09-24T03:25:46;18.50;;;12.43;;
38465;SDS011;24244;51.950;5.902;2022-09-24T03:28:11;19.45;;;12.98;;
38465;SDS011;24244;51.950;5.902;2022-09-24T03:30:37;19.48;;;12.82;;
38465;SDS011;24244;51.950;5.902;2022-09-24T03:33:21;19.80;;;12.35;;
38465;SDS011;24244;51.950;5.902;2022-09-24T03:35:47;18.80;;;12.40;;
38465;SDS011;24244;51.950;5.902;2022-09-24T03:38:12;18.27;;;12.70;;
38465;SDS011;24244;51.950;5.902;2022-09-24T03:40:37;18.35;;;11.80;;
38465;SDS011;24244;51.950;5.902;2022-09-24T03:43:04;18.92;;;12.75;;
38465;SDS011;24244;51.950;5.902;2022-09-24T03:45:30;16.92;;;11.88;;
38465;SDS011;24244;51.950;5.902;2022-09-24T03:47:55;17.05;;;11.73;;
38465;SDS011;24244;51.950;5.902;2022-09-24T03:50:21;18.13;;;12.07;;
38465;SDS011;24244;51.950;5.902;2022-09-24T03:52:46;16.67;;;11.07;;
38465;SDS011;24244;51.950;5.902;2022-09-24T03:55:12;17.23;;;11.77;;
38465;SDS011;24244;51.950;5.902;2022-09-24T03:57:37;18.92;;;11.95;;
38465;SDS011;24244;51.950;5.902;2022-09-24T04:00:04;18.50;;;12.02;;
38465;SDS011;24244;51.950;5.902;2022-09-24T04:02:30;18.10;;;11.90;;
38465;SDS011;24244;51.950;5.902;2022-09-24T04:04:56;17.42;;;11.80;;
38465;SDS011;24244;51.950;5.902;2022-09-24T04:07:21;17.40;;;11.35;;
38465;SDS011;24244;51.950;5.902;2022-09-24T04:09:47;18.73;;;12.05;;
38465;SDS011;24244;51.950;5.902;2022-09-24T04:12:12;19.25;;;12.35;;
38465;SDS011;24244;51.950;5.902;2022-09-24T04:14:38;18.88;;;11.93;;
38465;SDS011;24244;51.950;5.902;2022-09-24T04:17:05;19.30;;;12.82;;
38465;SDS011;24244;51.950;5.902;2022-09-24T04:19:30;20.80;;;12.90;;
38465;SDS011;24244;51.950;5.902;2022-09-24T04:21:56;18.58;;;12.05;;
38465;SDS011;24244;51.950;5.902;2022-09-24T04:24:21;20.17;;;13.00;;
38465;SDS011;24244;51.950;5.902;2022-09-24T04:26:47;18.13;;;11.93;;
38465;SDS011;24244;51.950;5.902;2022-09-24T04:29:12;19.80;;;13.23;;
38465;SDS011;24244;51.950;5.902;2022-09-24T04:31:38;18.70;;;11.88;;
38465;SDS011;24244;51.950;5.902;2022-09-24T04:34:05;18.33;;;12.15;;
38465;SDS011;24244;51.950;5.902;2022-09-24T04:36:31;19.60;;;12.63;;
38465;SDS011;24244;51.950;5.902;2022-09-24T04:38:56;19.33;;;12.73;;
38465;SDS011;24244;51.950;5.902;2022-09-24T04:41:22;18.30;;;12.05;;
38465;SDS011;24244;51.950;5.902;2022-09-24T04:43:47;19.55;;;13.50;;
38465;SDS011;24244;51.950;5.902;2022-09-24T04:46:13;20.30;;;14.10;;
38465;SDS011;24244;51.950;5.902;2022-09-24T04:48:38;19.40;;;13.57;;
38465;SDS011;24244;51.950;5.902;2022-09-24T04:51:06;20.17;;;13.30;;
38465;SDS011;24244;51.950;5.902;2022-09-24T04:53:32;19.50;;;13.10;;
38465;SDS011;24244;51.950;5.902;2022-09-24T04:55:57;22.67;;;14.10;;
38465;SDS011;24244;51.950;5.902;2022-09-24T04:58:24;19.67;;;13.85;;
38465;SDS011;24244;51.950;5.902;2022-09-24T05:00:49;20.42;;;13.73;;
38465;SDS011;24244;51.950;5.902;2022-09-24T05:03:15;19.98;;;14.05;;
38465;SDS011;24244;51.950;5.902;2022-09-24T05:05:41;20.65;;;13.85;;
38465;SDS011;24244;51.950;5.902;2022-09-24T05:08:08;19.50;;;13.50;;
38465;SDS011;24244;51.950;5.902;2022-09-24T05:10:33;22.00;;;14.48;;
38465;SDS011;24244;51.950;5.902;2022-09-24T05:12:58;20.25;;;14.25;;
38465;SDS011;24244;51.950;5.902;2022-09-24T05:15:24;21.10;;;14.05;;
38465;SDS011;24244;51.950;5.902;2022-09-24T05:17:50;21.00;;;14.40;;
38465;SDS011;24244;51.950;5.902;2022-09-24T05:20:16;22.63;;;15.02;;
38465;SDS011;24244;51.950;5.902;2022-09-24T05:22:41;21.83;;;14.43;;
38465;SDS011;24244;51.950;5.902;2022-09-24T05:25:09;21.50;;;14.20;;
38465;SDS011;24244;51.950;5.902;2022-09-24T05:27:36;21.17;;;14.93;;
38465;SDS011;24244;51.950;5.902;2022-09-24T05:30:02;21.02;;;14.60;;
38465;SDS011;24244;51.950;5.902;2022-09-24T05:32:30;21.52;;;15.15;;
38465;SDS011;24244;51.950;5.902;2022-09-24T05:34:59;19.88;;;13.52;;
38465;SDS011;24244;51.950;5.902;2022-09-24T05:37:25;22.42;;;15.23;;
38465;SDS011;24244;51.950;5.902;2022-09-24T05:39:50;21.30;;;14.93;;
38465;SDS011;24244;51.950;5.902;2022-09-24T05:42:19;20.83;;;14.48;;
38465;SDS011;24244;51.950;5.902;2022-09-24T05:44:44;21.90;;;14.90;;
38465;SDS011;24244;51.950;5.902;2022-09-24T05:47:10;22.27;;;14.85;;
38465;SDS011;24244;51.950;5.902;2022-09-24T05:49:35;22.05;;;15.02;;
38465;SDS011;24244;51.950;5.902;2022-09-24T05:52:01;20.92;;;15.05;;
38465;SDS011;24244;51.950;5.902;2022-09-24T05:54:26;21.52;;;14.73;;
38465;SDS011;24244;51.950;5.902;2022-09-24T05:56:52;21.33;;;14.85;;
38465;SDS011;24244;51.950;5.902;2022-09-24T05:59:19;20.48;;;14.25;;
38465;SDS011;24244;51.950;5.902;2022-09-24T06:01:44;20.77;;;14.27;;
38465;SDS011;24244;51.950;5.902;2022-09-24T06:04:10;21.17;;;14.32;;
38465;SDS011;24244;51.950;5.902;2022-09-24T06:06:38;21.77;;;14.45;;
38465;SDS011;24244;51.950;5.902;2022-09-24T06:09:04;20.70;;;14.70;;
38465;SDS011;24244;51.950;5.902;2022-09-24T06:11:29;21.67;;;14.52;;
38465;SDS011;24244;51.950;5.902;2022-09-24T06:13:59;20.88;;;14.75;;
38465;SDS011;24244;51.950;5.902;2022-09-24T06:16:27;22.85;;;15.63;;
38465;SDS011;24244;51.950;5.902;2022-09-24T06:18:52;21.10;;;15.07;;
38465;SDS011;24244;51.950;5.902;2022-09-24T06:21:18;20.45;;;14.32;;
38465;SDS011;24244;51.950;5.902;2022-09-24T06:23:43;20.77;;;15.07;;
38465;SDS011;24244;51.950;5.902;2022-09-24T06:26:10;21.58;;;15.35;;
38465;SDS011;24244;51.950;5.902;2022-09-24T06:28:37;22.25;;;15.70;;
38465;SDS011;24244;51.950;5.902;2022-09-24T06:31:03;21.08;;;15.63;;
38465;SDS011;24244;51.950;5.902;2022-09-24T06:33:31;21.75;;;15.73;;
38465;SDS011;24244;51.950;5.902;2022-09-24T06:35:58;20.88;;;14.80;;
38465;SDS011;24244;51.950;5.902;2022-09-24T06:38:24;21.67;;;15.38;;
38465;SDS011;24244;51.950;5.902;2022-09-24T06:40:50;21.58;;;15.57;;
38465;SDS011;24244;51.950;5.902;2022-09-24T06:43:16;22.27;;;15.07;;
38465;SDS011;24244;51.950;5.902;2022-09-24T06:45:42;21.13;;;14.18;;
38465;SDS011;24244;51.950;5.902;2022-09-24T06:48:08;22.02;;;15.38;;
38465;SDS011;24244;51.950;5.902;2022-09-24T06:50:38;20.35;;;14.63;;
38465;SDS011;24244;51.950;5.902;2022-09-24T06:53:04;20.20;;;14.90;;
38465;SDS011;24244;51.950;5.902;2022-09-24T06:55:31;21.95;;;14.93;;
38465;SDS011;24244;51.950;5.902;2022-09-24T06:58:01;19.75;;;14.30;;
38465;SDS011;24244;51.950;5.902;2022-09-24T07:00:28;22.02;;;14.30;;
38465;SDS011;24244;51.950;5.902;2022-09-24T07:02:54;19.48;;;13.45;;
38465;SDS011;24244;51.950;5.902;2022-09-24T07:05:20;19.35;;;13.13;;
38465;SDS011;24244;51.950;5.902;2022-09-24T07:07:46;19.27;;;14.35;;
38465;SDS011;24244;51.950;5.902;2022-09-24T07:10:12;21.35;;;14.77;;
38465;SDS011;24244;51.950;5.902;2022-09-24T07:12:39;21.50;;;15.07;;
38465;SDS011;24244;51.950;5.902;2022-09-24T07:15:06;21.73;;;14.57;;
38465;SDS011;24244;51.950;5.902;2022-09-24T07:17:33;20.10;;;13.98;;
38465;SDS011;24244;51.950;5.902;2022-09-24T07:19:58;19.67;;;13.98;;
38465;SDS011;24244;51.950;5.902;2022-09-24T07:22:24;20.20;;;14.35;;
38465;SDS011;24244;51.950;5.902;2022-09-24T07:24:50;19.80;;;14.25;;
38465;SDS011;24244;51.950;5.902;2022-09-24T07:27:16;21.00;;;14.63;;
38465;SDS011;24244;51.950;5.902;2022-09-24T07:29:45;20.98;;;14.38;;
38465;SDS011;24244;51.950;5.902;2022-09-24T07:32:10;19.80;;;13.93;;
38465;SDS011;24244;51.950;5.902;2022-09-24T07:34:36;19.20;;;13.75;;
38465;SDS011;24244;51.950;5.902;2022-09-24T07:37:01;20.58;;;13.60;;
38465;SDS011;24244;51.950;5.902;2022-09-24T07:39:27;20.67;;;14.60;;
38465;SDS011;24244;51.950;5.902;2022-09-24T07:41:54;19.17;;;13.48;;
38465;SDS011;24244;51.950;5.902;2022-09-24T07:44:20;20.27;;;14.38;;
38465;SDS011;24244;51.950;5.902;2022-09-24T07:46:47;18.90;;;13.23;;
38465;SDS011;24244;51.950;5.902;2022-09-24T07:49:12;19.80;;;14.00;;
38465;SDS011;24244;51.950;5.902;2022-09-24T07:51:39;19.88;;;13.75;;
38465;SDS011;24244;51.950;5.902;2022-09-24T07:54:05;19.23;;;13.32;;
38465;SDS011;24244;51.950;5.902;2022-09-24T07:56:30;19.98;;;14.07;;
38465;SDS011;24244;51.950;5.902;2022-09-24T07:59:00;19.80;;;13.90;;
38465;SDS011;24244;51.950;5.902;2022-09-24T08:01:26;19.67;;;13.98;;
38465;SDS011;24244;51.950;5.902;2022-09-24T08:03:51;19.85;;;13.98;;
38465;SDS011;24244;51.950;5.902;2022-09-24T08:06:17;19.60;;;14.20;;
38465;SDS011;24244;51.950;5.902;2022-09-24T08:08:44;20.10;;;13.93;;
38465;SDS011;24244;51.950;5.902;2022-09-24T08:11:12;20.45;;;14.07;;
38465;SDS011;24244;51.950;5.902;2022-09-24T08:13:38;21.13;;;15.23;;
38465;SDS011;24244;51.950;5.902;2022-09-24T08:16:05;19.58;;;13.05;;
38465;SDS011;24244;51.950;5.902;2022-09-24T08:18:31;23.67;;;14.60;;
38465;SDS011;24244;51.950;5.902;2022-09-24T08:20:57;22.73;;;13.73;;
38465;SDS011;24244;51.950;5.902;2022-09-24T08:23:24;20.52;;;13.70;;
38465;SDS011;24244;51.950;5.902;2022-09-24T08:25:52;20.48;;;13.80;;
38465;SDS011;24244;51.950;5.902;2022-09-24T08:28:18;20.25;;;13.77;;
38465;SDS011;24244;51.950;5.902;2022-09-24T08:30:43;18.80;;;12.90;;
38465;SDS011;24244;51.950;5.902;2022-09-24T08:33:11;19.52;;;13.48;;
38465;SDS011;24244;51.950;5.902;2022-09-24T08:35:37;18.13;;;13.23;;
38465;SDS011;24244;51.950;5.902;2022-09-24T08:38:05;20.13;;;14.10;;
38465;SDS011;24244;51.950;5.902;2022-09-24T08:40:32;19.80;;;13.95;;
38465;SDS011;24244;51.950;5.902;2022-09-24T08:43:05;19.80;;;13.68;;
38465;SDS011;24244;51.950;5.902;2022-09-24T08:45:43;18.55;;;13.35;;
38465;SDS011;24244;51.950;5.902;2022-09-24T08:48:36;19.08;;;13.43;;
38465;SDS011;24244;51.950;5.902;2022-09-24T08:51:06;19.60;;;13.70;;
38465;SDS011;24244;51.950;5.902;2022-09-24T08:53:39;20.13;;;14.48;;
38465;SDS011;24244;51.950;5.902;2022-09-24T08:56:10;21.05;;;14.93;;
38465;SDS011;24244;51.950;5.902;2022-09-24T08:58:37;19.55;;;13.73;;
38465;SDS011;24244;51.950;5.902;2022-09-24T09:01:12;20.08;;;15.88;;
38465;SDS011;24244;51.950;5.902;2022-09-24T09:03:50;23.58;;;16.85;;
38465;SDS011;24244;51.950;5.902;2022-09-24T09:09:13;20.83;;;14.95;;
38465;SDS011;24244;51.950;5.902;2022-09-24T09:11:42;19.40;;;14.68;;
38465;SDS011;24244;51.950;5.902;2022-09-24T09:14:11;18.52;;;13.57;;
38465;SDS011;24244;51.950;5.902;2022-09-24T09:16:43;19.02;;;13.07;;
38465;SDS011;24244;51.950;5.902;2022-09-24T09:19:15;18.77;;;12.75;;
38465;SDS011;24244;51.950;5.902;2022-09-24T09:24:11;15.95;;;11.60;;
38465;SDS011;24244;51.950;5.902;2022-09-24T09:26:40;16.85;;;11.50;;
38465;SDS011;24244;51.950;5.902;2022-09-24T09:29:07;18.67;;;12.52;;
38465;SDS011;24244;51.950;5.902;2022-09-24T09:31:36;18.30;;;12.75;;
38465;SDS011;24244;51.950;5.902;2022-09-24T09:34:19;17.77;;;12.27;;
38465;SDS011;24244;51.950;5.902;2022-09-24T09:37:00;16.85;;;12.13;;
38465;SDS011;24244;51.950;5.902;2022-09-24T09:39:33;18.40;;;12.10;;
38465;SDS011;24244;51.950;5.902;2022-09-24T09:42:13;17.63;;;11.98;;
38465;SDS011;24244;51.950;5.902;2022-09-24T09:44:49;16.98;;;12.27;;
38465;SDS011;24244;51.950;5.902;2022-09-24T09:47:18;19.70;;;12.15;;
38465;SDS011;24244;51.950;5.902;2022-09-24T09:49:51;19.48;;;12.18;;
38465;SDS011;24244;51.950;5.902;2022-09-24T09:52:19;17.80;;;12.80;;
38465;SDS011;24244;51.950;5.902;2022-09-24T09:54:49;18.05;;;12.93;;
38465;SDS011;24244;51.950;5.902;2022-09-24T09:57:15;18.95;;;13.20;;
38465;SDS011;24244;51.950;5.902;2022-09-24T09:59:44;18.85;;;13.05;;
38465;SDS011;24244;51.950;5.902;2022-09-24T10:02:14;18.97;;;13.30;;
38465;SDS011;24244;51.950;5.902;2022-09-24T10:04:47;17.75;;;12.50;;
38465;SDS011;24244;51.950;5.902;2022-09-24T10:07:19;22.05;;;13.63;;
38465;SDS011;24244;51.950;5.902;2022-09-24T10:09:44;19.40;;;13.68;;
38465;SDS011;24244;51.950;5.902;2022-09-24T10:12:14;19.83;;;13.13;;
38465;SDS011;24244;51.950;5.902;2022-09-24T10:14:40;19.83;;;13.77;;
38465;SDS011;24244;51.950;5.902;2022-09-24T10:17:09;20.75;;;14.25;;
38465;SDS011;24244;51.950;5.902;2022-09-24T10:19:38;18.92;;;13.63;;
38465;SDS011;24244;51.950;5.902;2022-09-24T10:22:10;19.85;;;13.50;;
38465;SDS011;24244;51.950;5.902;2022-09-24T10:24:43;19.15;;;12.85;;
38465;SDS011;24244;51.950;5.902;2022-09-24T10:27:09;20.15;;;13.55;;
38465;SDS011;24244;51.950;5.902;2022-09-24T10:29:36;19.45;;;13.85;;
38465;SDS011;24244;51.950;5.902;2022-09-24T10:32:21;19.58;;;12.95;;
38465;SDS011;24244;51.950;5.902;2022-09-24T10:34:53;19.13;;;13.18;;
38465;SDS011;24244;51.950;5.902;2022-09-24T10:37:21;17.30;;;13.02;;
38465;SDS011;24244;51.950;5.902;2022-09-24T10:39:55;19.98;;;13.60;;
38465;SDS011;24244;51.950;5.902;2022-09-24T10:42:22;19.48;;;13.18;;
38465;SDS011;24244;51.950;5.902;2022-09-24T10:44:48;18.90;;;13.40;;
38465;SDS011;24244;51.950;5.902;2022-09-24T10:47:19;16.75;;;12.07;;
38465;SDS011;24244;51.950;5.902;2022-09-24T10:49:56;19.45;;;13.05;;
38465;SDS011;24244;51.950;5.902;2022-09-24T10:52:39;19.13;;;12.98;;
38465;SDS011;24244;51.950;5.902;2022-09-24T10:55:12;18.08;;;12.77;;
38465;SDS011;24244;51.950;5.902;2022-09-24T10:57:44;20.33;;;13.93;;
38465;SDS011;24244;51.950;5.902;2022-09-24T11:00:18;18.02;;;13.40;;
38465;SDS011;24244;51.950;5.902;2022-09-24T11:02:59;18.00;;;13.40;;
38465;SDS011;24244;51.950;5.902;2022-09-24T11:05:58;18.60;;;12.90;;
38465;SDS011;24244;51.950;5.902;2022-09-24T11:08:30;19.50;;;13.65;;
38465;SDS011;24244;51.950;5.902;2022-09-24T11:11:10;19.85;;;14.40;;
38465;SDS011;24244;51.950;5.902;2022-09-24T11:19:32;19.02;;;12.60;;
38465;SDS011;24244;51.950;5.902;2022-09-24T11:22:19;18.40;;;12.82;;
38465;SDS011;24244;51.950;5.902;2022-09-24T11:25:05;18.13;;;12.40;;
38465;SDS011;24244;51.950;5.902;2022-09-24T11:27:47;18.70;;;12.77;;
38465;SDS011;24244;51.950;5.902;2022-09-24T11:30:24;19.65;;;13.45;;
38465;SDS011;24244;51.950;5.902;2022-09-24T11:32:59;21.42;;;14.32;;
38465;SDS011;24244;51.950;5.902;2022-09-24T11:35:48;20.25;;;13.57;;
38465;SDS011;24244;51.950;5.902;2022-09-24T11:38:27;18.83;;;12.73;;
38465;SDS011;24244;51.950;5.902;2022-09-24T11:41:10;18.25;;;12.63;;
38465;SDS011;24244;51.950;5.902;2022-09-24T11:43:51;19.25;;;13.45;;
38465;SDS011;24244;51.950;5.902;2022-09-24T11:46:38;20.08;;;14.18;;
38465;SDS011;24244;51.950;5.902;2022-09-24T11:49:25;20.85;;;14.60;;
38465;SDS011;24244;51.950;5.902;2022-09-24T11:52:04;20.00;;;14.25;;
38465;SDS011;24244;51.950;5.902;2022-09-24T11:54:36;20.95;;;15.45;;
38465;SDS011;24244;51.950;5.902;2022-09-24T11:57:09;21.08;;;15.50;;
38465;SDS011;24244;51.950;5.902;2022-09-24T11:59:37;23.83;;;16.50;;
38465;SDS011;24244;51.950;5.902;2022-09-24T12:02:12;21.05;;;15.15;;
38465;SDS011;24244;51.950;5.902;2022-09-24T12:04:45;22.40;;;14.82;;
38465;SDS011;24244;51.950;5.902;2022-09-24T12:07:16;20.00;;;14.43;;
38465;SDS011;24244;51.950;5.902;2022-09-24T12:09:48;21.38;;;14.70;;
38465;SDS011;24244;51.950;5.902;2022-09-24T12:12:19;20.23;;;14.73;;
38465;SDS011;24244;51.950;5.902;2022-09-24T12:14:50;20.67;;;14.23;;
38465;SDS011;24244;51.950;5.902;2022-09-24T12:17:22;17.02;;;12.27;;
38465;SDS011;24244;51.950;5.902;2022-09-24T12:19:53;17.60;;;12.02;;
38465;SDS011;24244;51.950;5.902;2022-09-24T12:22:22;20.63;;;14.07;;
38465;SDS011;24244;51.950;5.902;2022-09-24T12:24:50;21.13;;;14.05;;
38465;SDS011;24244;51.950;5.902;2022-09-24T12:27:20;18.45;;;13.02;;
38465;SDS011;24244;51.950;5.902;2022-09-24T12:29:50;19.67;;;14.43;;
38465;SDS011;24244;51.950;5.902;2022-09-24T12:32:43;19.25;;;14.07;;
38465;SDS011;24244;51.950;5.902;2022-09-24T12:35:22;19.30;;;13.70;;
38465;SDS011;24244;51.950;5.902;2022-09-24T12:37:57;20.17;;;14.43;;
38465;SDS011;24244;51.950;5.902;2022-09-24T12:43:36;19.40;;;13.45;;
38465;SDS011;24244;51.950;5.902;2022-09-24T12:46:06;21.55;;;15.02;;
38465;SDS011;24244;51.950;5.902;2022-09-24T12:48:41;22.58;;;15.38;;
38465;SDS011;24244;51.950;5.902;2022-09-24T12:51:08;21.55;;;15.23;;
38465;SDS011;24244;51.950;5.902;2022-09-24T12:53:36;23.20;;;15.95;;
38465;SDS011;24244;51.950;5.902;2022-09-24T12:56:04;22.42;;;15.32;;
38465;SDS011;24244;51.950;5.902;2022-09-24T12:58:37;20.08;;;13.93;;
38465;SDS011;24244;51.950;5.902;2022-09-24T13:01:05;19.05;;;13.45;;
38465;SDS011;24244;51.950;5.902;2022-09-24T13:03:38;19.13;;;12.57;;
38465;SDS011;24244;51.950;5.902;2022-09-24T13:06:18;19.02;;;13.05;;
38465;SDS011;24244;51.950;5.902;2022-09-24T13:08:50;16.73;;;11.70;;
38465;SDS011;24244;51.950;5.902;2022-09-24T13:11:23;17.08;;;11.80;;
38465;SDS011;24244;51.950;5.902;2022-09-24T13:13:58;19.90;;;13.05;;
38465;SDS011;24244;51.950;5.902;2022-09-24T13:16:27;18.67;;;12.57;;
38465;SDS011;24244;51.950;5.902;2022-09-24T13:18:53;18.30;;;12.05;;
38465;SDS011;24244;51.950;5.902;2022-09-24T13:21:21;17.75;;;11.75;;
38465;SDS011;24244;51.950;5.902;2022-09-24T13:23:49;19.45;;;12.95;;
38465;SDS011;24244;51.950;5.902;2022-09-24T13:26:26;18.00;;;12.63;;
38465;SDS011;24244;51.950;5.902;2022-09-24T13:28:54;19.52;;;13.07;;
38465;SDS011;24244;51.950;5.902;2022-09-24T13:31:28;17.40;;;11.82;;
38465;SDS011;24244;51.950;5.902;2022-09-24T13:33:59;16.77;;;12.13;;
38465;SDS011;24244;51.950;5.902;2022-09-24T13:36:33;18.92;;;13.23;;
38465;SDS011;24244;51.950;5.902;2022-09-24T13:39:02;18.77;;;12.77;;
38465;SDS011;24244;51.950;5.902;2022-09-24T13:41:40;18.73;;;12.80;;
38465;SDS011;24244;51.950;5.902;2022-09-24T13:44:12;18.38;;;12.93;;
38465;SDS011;24244;51.950;5.902;2022-09-24T13:46:45;19.40;;;13.10;;
38465;SDS011;24244;51.950;5.902;2022-09-24T13:49:18;19.10;;;13.07;;
38465;SDS011;24244;51.950;5.902;2022-09-24T13:51:49;17.15;;;12.27;;
38465;SDS011;24244;51.950;5.902;2022-09-24T13:54:22;17.00;;;11.77;;
38465;SDS011;24244;51.950;5.902;2022-09-24T13:57:01;18.13;;;12.35;;
38465;SDS011;24244;51.950;5.902;2022-09-24T13:59:34;18.58;;;13.10;;
38465;SDS011;24244;51.950;5.902;2022-09-24T14:02:01;17.20;;;11.98;;
38465;SDS011;24244;51.950;5.902;2022-09-24T14:04:27;18.42;;;12.93;;
38465;SDS011;24244;51.950;5.902;2022-09-24T14:06:54;17.60;;;12.50;;
38465;SDS011;24244;51.950;5.902;2022-09-24T14:09:25;17.83;;;13.00;;
38465;SDS011;24244;51.950;5.902;2022-09-24T14:11:53;20.05;;;13.52;;
38465;SDS011;24244;51.950;5.902;2022-09-24T14:14:21;18.90;;;13.85;;
38465;SDS011;24244;51.950;5.902;2022-09-24T14:16:49;18.83;;;13.75;;
38465;SDS011;24244;51.950;5.902;2022-09-24T14:19:16;20.10;;;13.68;;
38465;SDS011;24244;51.950;5.902;2022-09-24T14:21:42;19.02;;;13.43;;
38465;SDS011;24244;51.950;5.902;2022-09-24T14:24:12;18.63;;;13.70;;
38465;SDS011;24244;51.950;5.902;2022-09-24T14:26:44;16.92;;;12.52;;
38465;SDS011;24244;51.950;5.902;2022-09-24T14:29:15;19.27;;;13.40;;
38465;SDS011;24244;51.950;5.902;2022-09-24T14:31:43;19.02;;;13.15;;
38465;SDS011;24244;51.950;5.902;2022-09-24T14:36:48;16.58;;;11.70;;
38465;SDS011;24244;51.950;5.902;2022-09-24T14:39:15;19.73;;;12.75;;
38465;SDS011;24244;51.950;5.902;2022-09-24T14:41:41;18.95;;;13.18;;
38465;SDS011;24244;51.950;5.902;2022-09-24T14:44:07;18.40;;;12.93;;
38465;SDS011;24244;51.950;5.902;2022-09-24T14:46:44;17.65;;;12.43;;
38465;SDS011;24244;51.950;5.902;2022-09-24T14:49:16;18.25;;;12.50;;
38465;SDS011;24244;51.950;5.902;2022-09-24T14:51:51;19.27;;;13.15;;
38465;SDS011;24244;51.950;5.902;2022-09-24T14:54:18;16.65;;;11.10;;
38465;SDS011;24244;51.950;5.902;2022-09-24T14:56:47;15.20;;;9.77;;